Time;durP1;ratioP1;P1;durP2;ratioP2;P2;SDS_P1;SDS_P2;PMS_P1;PMS_P2;Temp;Humidity;BMP_temperature;BMP_pressure;BME280_temperature;BME280_humidity;BME280_pressure;Samples;Min_cycle;Max_cycle;Signal;HPM_P1;HPM_P2
2023/05/14 00:00:46;;;;;;;12.13;8.35;;;;;;;11.43;75.06;99431.22;5026724;28;20057;-74
2023/05/14 00:03:12;;;;;;;13.75;10.07;;;;;;;11.50;74.94;99445.00;5026733;28;20033;-74
2023/05/14 00:05:41;;;;;;;9.75;8.77;;;;;;;11.35;75.03;99412.25;5025441;28;20108;-74
2023/05/14 00:08:07;;;;;;;11.18;10.02;;;;;;;11.49;75.01;99432.69;5026645;28;20237;-74
2023/05/14 00:10:34;;;;;;;11.68;9.07;;;;;;;10.98;74.93;99347.16;5026799;28;20337;-74
2023/05/14 00:13:01;;;;;;;10.60;9.50;;;;;;;11.46;74.96;99432.84;5026417;28;20041;-73
2023/05/14 00:15:28;;;;;;;11.05;9.80;;;;;;;11.45;75.03;99424.03;5026481;28;20050;-74
2023/05/14 00:17:54;;;;;;;13.57;9.07;;;;;;;11.44;75.00;99432.09;5027014;28;20105;-74
2023/05/14 00:20:21;;;;;;;10.07;8.95;;;;;;;11.46;74.83;99424.91;5026642;28;20034;-74
2023/05/14 00:22:49;;;;;;;14.35;8.82;;;;;;;11.46;74.67;99420.44;5026911;28;20071;-74
2023/05/14 00:25:16;;;;;;;9.85;8.85;;;;;;;11.44;74.89;99409.06;5026648;28;20104;-74
2023/05/14 00:27:43;;;;;;;9.25;8.25;;;;;;;11.42;74.92;99416.25;5026268;28;20050;-74
2023/05/14 00:30:11;;;;;;;10.20;8.18;;;;;;;11.39;74.86;99408.47;5025345;28;20052;-74
2023/05/14 00:32:37;;;;;;;9.98;8.95;;;;;;;11.40;74.82;99406.66;5026148;28;20053;-74
2023/05/14 00:35:05;;;;;;;10.07;8.93;;;;;;;11.42;74.99;99407.44;5026168;28;20302;-74
2023/05/14 00:37:31;;;;;;;13.50;10.18;;;;;;;11.39;74.88;99399.66;5025325;28;20124;-74
2023/05/14 00:40:00;;;;;;;11.23;9.25;;;;;;;10.72;74.69;99297.38;5025251;28;20055;-74
2023/05/14 00:42:26;;;;;;;11.05;8.23;;;;;;;11.35;75.08;99404.28;5026030;28;20053;-74
2023/05/14 00:44:53;;;;;;;8.98;8.02;;;;;;;10.91;74.75;99333.41;5025187;28;20055;-74
2023/05/14 00:47:20;;;;;;;12.90;10.23;;;;;;;11.18;74.75;99372.56;5026558;28;20037;-75
2023/05/14 00:49:47;;;;;;;13.45;11.70;;;;;;;11.33;75.19;99403.50;5025040;28;20034;-74
2023/05/14 00:52:15;;;;;;;11.50;9.40;;;;;;;11.37;75.15;99398.88;5025931;28;20245;-74
2023/05/14 00:54:42;;;;;;;10.68;8.48;;;;;;;11.38;74.93;99405.91;5026156;28;20088;-74
2023/05/14 00:57:10;;;;;;;13.57;8.68;;;;;;;10.78;75.23;99297.06;5026056;28;20175;-74
2023/05/14 00:59:39;;;;;;;11.50;9.30;;;;;;;11.41;74.94;99395.97;5026290;28;20049;-75
2023/05/14 01:02:06;;;;;;;11.88;8.85;;;;;;;11.40;75.03;99388.94;5024988;28;20046;-74
2023/05/14 01:04:34;;;;;;;10.63;9.48;;;;;;;11.27;75.14;99365.88;5024951;28;20044;-74
2023/05/14 01:07:11;;;;;;;10.02;8.95;;;;;;;11.18;75.11;99351.34;5026455;28;20205;-74
2023/05/14 01:09:44;;;;;;;10.25;9.15;;;;;;;11.41;75.04;99389.81;5025928;28;20213;-74
2023/05/14 01:12:19;;;;;;;10.25;9.15;;;;;;;11.42;75.06;99391.50;5025978;28;20081;-74
2023/05/14 01:14:54;;;;;;;9.65;8.43;;;;;;;11.42;75.13;99378.25;5024798;28;20046;-76
2023/05/14 01:17:22;;;;;;;10.40;9.27;;;;;;;11.41;75.33;99385.34;5025204;28;20249;-73
2023/05/14 01:19:51;;;;;;;9.63;8.27;;;;;;;11.42;75.08;99368.50;5025410;28;20076;-73
2023/05/14 01:22:19;;;;;;;10.18;9.18;;;;;;;11.41;75.16;99374.75;5025359;28;20053;-73
2023/05/14 01:24:46;;;;;;;9.68;8.68;;;;;;;11.11;75.36;99315.50;5024630;28;20048;-73
2023/05/14 01:27:18;;;;;;;11.98;9.38;;;;;;;11.42;75.41;99364.97;5025476;28;20092;-73
2023/05/14 01:29:53;;;;;;;10.23;8.90;;;;;;;11.42;75.19;99360.53;5025722;28;20057;-73
2023/05/14 01:32:23;;;;;;;11.75;9.80;;;;;;;11.06;75.24;99307.81;5025587;28;20053;-73
2023/05/14 01:34:52;;;;;;;10.43;9.05;;;;;;;11.42;75.18;99373.78;5024637;28;20034;-73
2023/05/14 01:37:21;;;;;;;10.57;9.57;;;;;;;11.42;75.33;99365.84;5024571;28;20046;-73
2023/05/14 01:39:49;;;;;;;11.25;9.45;;;;;;;11.39;75.02;99368.66;5024342;28;20092;-73
2023/05/14 01:42:16;;;;;;;11.00;9.85;;;;;;;11.38;75.25;99366.97;5025297;28;20050;-73
2023/05/14 01:44:43;;;;;;;12.98;11.05;;;;;;;11.37;75.28;99372.34;5024554;28;20041;-75
2023/05/14 01:47:10;;;;;;;11.82;8.60;;;;;;;11.37;75.48;99367.03;5024505;28;20046;-73
2023/05/14 01:49:37;;;;;;;12.18;8.52;;;;;;;11.35;75.27;99367.13;5025241;28;20038;-73
2023/05/14 01:52:04;;;;;;;12.65;9.68;;;;;;;11.34;75.08;99369.88;5025836;28;20286;-73
2023/05/14 01:54:32;;;;;;;11.45;9.63;;;;;;;11.34;75.50;99367.22;5024421;28;20045;-73
2023/05/14 01:56:59;;;;;;;10.63;9.52;;;;;;;11.34;75.33;99357.47;5025755;28;20053;-73
2023/05/14 01:59:25;;;;;;;11.23;10.05;;;;;;;11.37;75.26;99359.09;5025062;28;20056;-73
2023/05/14 02:01:52;;;;;;;14.18;10.60;;;;;;;11.37;75.28;99346.66;5025481;28;20052;-73
2023/05/14 02:04:19;;;;;;;11.73;10.63;;;;;;;11.36;75.15;99355.56;5025460;28;20041;-73
2023/05/14 02:06:46;;;;;;;10.05;9.05;;;;;;;11.13;75.47;99308.31;5025120;28;20302;-73
2023/05/14 02:09:13;;;;;;;10.60;9.50;;;;;;;11.36;75.43;99344.97;5024324;28;20046;-73
2023/05/14 02:11:41;;;;;;;10.55;9.55;;;;;;;11.37;75.30;99337.84;5025617;28;20050;-73
2023/05/14 02:14:07;;;;;;;12.27;10.35;;;;;;;11.36;75.06;99349.41;5024312;28;20044;-73
2023/05/14 02:16:34;;;;;;;11.15;10.05;;;;;;;11.33;75.06;99341.63;5025626;28;20053;-73
2023/05/14 02:19:01;;;;;;;11.73;10.45;;;;;;;11.30;75.15;99340.00;5025611;28;20046;-73
2023/05/14 02:21:28;;;;;;;10.32;9.32;;;;;;;11.29;75.41;99343.63;5024917;28;20062;-73
2023/05/14 02:23:54;;;;;;;11.25;9.23;;;;;;;11.14;75.23;99313.53;5025305;28;20050;-73
2023/05/14 02:26:21;;;;;;;11.02;9.85;;;;;;;11.30;75.18;99334.72;5025561;28;20046;-74
2023/05/14 02:28:49;;;;;;;11.93;10.15;;;;;;;11.32;75.34;99331.97;5024504;28;20034;-73
2023/05/14 02:31:18;;;;;;;10.13;8.95;;;;;;;11.36;75.08;99334.34;5027563;28;20046;-73
2023/05/14 02:33:44;;;;;;;10.07;8.93;;;;;;;11.37;74.99;99329.91;5028426;28;20175;-73
2023/05/14 02:36:11;;;;;;;11.02;9.93;;;;;;;11.36;75.01;99321.09;5028928;28;20088;-73
2023/05/14 02:38:38;;;;;;;9.95;8.93;;;;;;;11.39;74.84;99330.66;5027497;28;20050;-73
2023/05/14 02:41:04;;;;;;;11.50;10.40;;;;;;;11.22;74.65;99298.00;5027492;28;20034;-73
2023/05/14 02:43:31;;;;;;;10.50;9.38;;;;;;;11.15;74.51;99303.78;5028808;28;20057;-73
2023/05/14 02:45:59;;;;;;;9.73;8.82;;;;;;;11.24;74.72;99332.41;5028744;28;20046;-73
2023/05/14 02:48:26;;;;;;;9.15;8.20;;;;;;;11.22;74.72;99332.50;5028714;28;20247;-73
2023/05/14 02:50:53;;;;;;;10.07;9.07;;;;;;;11.24;74.75;99337.72;5028601;28;20042;-73
2023/05/14 02:53:19;;;;;;;9.05;8.15;;;;;;;11.24;74.76;99330.63;5028614;28;20049;-73
2023/05/14 02:55:46;;;;;;;9.13;8.20;;;;;;;11.00;74.76;99292.25;5028009;28;20187;-73
2023/05/14 02:58:13;;;;;;;8.90;8.00;;;;;;;11.22;74.49;99334.31;5028278;28;20198;-73
2023/05/14 03:00:40;;;;;;;8.95;8.05;;;;;;;11.24;74.65;99335.91;5027931;28;20206;-73
2023/05/14 03:03:08;;;;;;;9.05;8.18;;;;;;;11.21;74.51;99329.94;5028435;28;20181;-73
2023/05/14 03:05:35;;;;;;;9.55;8.60;;;;;;;11.17;74.29;99331.91;5028107;28;20048;-73
2023/05/14 03:08:02;;;;;;;9.70;8.80;;;;;;;11.15;74.25;99335.59;5027784;28;20116;-73
2023/05/14 03:10:29;;;;;;;9.57;8.30;;;;;;;11.12;74.44;99331.31;5028006;28;20044;-73
2023/05/14 03:12:55;;;;;;;9.63;8.73;;;;;;;11.09;74.38;99328.84;5028256;28;20041;-73
2023/05/14 03:15:22;;;;;;;10.05;9.05;;;;;;;11.09;74.57;99331.50;5026809;28;20187;-74
2023/05/14 03:17:49;;;;;;;10.10;8.95;;;;;;;11.10;74.39;99332.34;5026753;28;20041;-73
2023/05/14 03:20:17;;;;;;;9.98;8.98;;;;;;;11.10;74.27;99317.28;5027848;28;20104;-73
2023/05/14 03:22:44;;;;;;;9.43;8.52;;;;;;;11.07;74.29;99322.78;5027519;28;20053;-74
2023/05/14 03:25:11;;;;;;;10.18;8.88;;;;;;;11.09;74.46;99310.28;5026642;28;20033;-74
2023/05/14 03:27:37;;;;;;;10.15;8.63;;;;;;;10.58;74.07;99227.47;5027717;28;20297;-75
2023/05/14 03:30:05;;;;;;;10.10;9.10;;;;;;;10.77;74.08;99250.28;5027272;28;20056;-74
2023/05/14 03:32:32;;;;;;;10.70;8.13;;;;;;;11.06;74.14;99305.16;5027612;28;20088;-73
2023/05/14 03:34:59;;;;;;;9.68;8.60;;;;;;;11.03;74.07;99307.13;5026409;28;20056;-73
2023/05/14 03:37:27;;;;;;;9.80;8.80;;;;;;;11.02;73.95;99302.78;5027500;28;20053;-73
2023/05/14 03:39:54;;;;;;;9.18;8.27;;;;;;;10.99;74.16;99305.59;5026644;28;20377;-74
2023/05/14 03:42:21;;;;;;;10.00;8.65;;;;;;;10.99;74.16;99303.81;5026425;28;20049;-73
2023/05/14 03:44:47;;;;;;;10.10;9.18;;;;;;;10.99;73.91;99300.28;5027343;28;20298;-73
2023/05/14 03:47:14;;;;;;;13.63;10.07;;;;;;;10.99;74.16;99303.81;5027055;28;20046;-73
2023/05/14 03:49:41;;;;;;;9.35;8.23;;;;;;;11.02;73.93;99300.13;5027267;28;20171;-73
2023/05/14 03:52:07;;;;;;;10.30;9.27;;;;;;;11.00;74.05;99296.69;5026034;28;20249;-75
2023/05/14 03:54:37;;;;;;;9.65;8.65;;;;;;;10.97;73.86;99303.03;5027159;28;20248;-73
2023/05/14 03:57:04;;;;;;;8.95;8.05;;;;;;;10.99;73.86;99305.59;5026890;28;20237;-73
2023/05/14 03:59:31;;;;;;;10.05;7.45;;;;;;;11.02;74.01;99302.78;5027095;28;20197;-73
2023/05/14 04:01:58;;;;;;;10.13;8.68;;;;;;;10.92;73.73;99281.22;5025924;28;20101;-73
2023/05/14 04:04:25;;;;;;;10.18;8.30;;;;;;;11.05;73.66;99297.28;5026992;28;20046;-73
2023/05/14 04:06:51;;;;;;;9.00;8.13;;;;;;;11.04;73.56;99291.13;5025836;28;20041;-73
2023/05/14 04:09:18;;;;;;;8.70;7.88;;;;;;;11.07;73.75;99301.56;5026654;28;20360;-73
2023/05/14 04:11:46;;;;;;;10.07;7.85;;;;;;;11.08;73.71;99303.28;5025748;28;20343;-73
2023/05/14 04:14:13;;;;;;;8.48;7.68;;;;;;;11.08;73.88;99308.56;5026917;28;20368;-73
2023/05/14 04:16:39;;;;;;;9.40;8.40;;;;;;;11.07;73.46;99309.53;5025578;28;20229;-73
2023/05/14 04:19:06;;;;;;;9.30;8.40;;;;;;;11.07;73.64;99311.31;5025694;28;20038;-73
2023/05/14 04:21:33;;;;;;;9.57;8.73;;;;;;;11.04;73.69;99307.03;5025345;28;20064;-73
2023/05/14 04:24:00;;;;;;;10.18;7.57;;;;;;;11.02;73.57;99308.94;5026657;28;20041;-73
2023/05/14 04:26:26;;;;;;;7.78;7.03;;;;;;;11.01;73.77;99311.66;5025543;28;20046;-73
2023/05/14 04:28:54;;;;;;;8.90;8.00;;;;;;;11.02;73.75;99308.94;5026806;28;20049;-73
2023/05/14 04:31:22;;;;;;;7.97;7.18;;;;;;;10.97;73.92;99284.47;5025331;28;20062;-73
2023/05/14 04:33:48;;;;;;;8.68;7.78;;;;;;;11.01;73.69;99295.75;5026765;28;20088;-73
2023/05/14 04:36:15;;;;;;;9.00;8.10;;;;;;;11.01;73.99;99301.91;5025256;28;20045;-73
2023/05/14 04:38:42;;;;;;;8.48;7.68;;;;;;;11.02;73.83;99298.31;5026689;28;20042;-73
2023/05/14 04:41:08;;;;;;;9.90;8.13;;;;;;;11.04;73.92;99296.44;5025269;28;20041;-74
2023/05/14 04:43:35;;;;;;;9.85;7.90;;;;;;;11.04;74.08;99298.22;5025211;28;20092;-74
2023/05/14 04:46:04;;;;;;;8.75;7.75;;;;;;;11.03;73.92;99293.88;5026560;28;20037;-73
2023/05/14 04:48:31;;;;;;;8.50;7.65;;;;;;;11.06;74.06;99299.84;5026290;28;20041;-74
2023/05/14 04:50:58;;;;;;;8.90;8.00;;;;;;;11.06;73.71;99288.38;5025100;28;20293;-73
2023/05/14 04:53:25;;;;;;;8.35;7.55;;;;;;;11.06;73.60;99299.00;5025555;28;20042;-74
2023/05/14 04:55:52;;;;;;;7.80;7.13;;;;;;;11.03;73.96;99313.28;5025811;28;20042;-74
2023/05/14 04:58:19;;;;;;;8.18;7.38;;;;;;;11.02;74.00;99308.06;5026156;28;20356;-74
2023/05/14 05:00:46;;;;;;;9.63;7.82;;;;;;;10.99;73.82;99298.50;5026380;28;20206;-73
2023/05/14 05:03:14;;;;;;;8.07;7.28;;;;;;;10.90;73.62;99294.59;5026079;28;20189;-74
2023/05/14 05:05:41;;;;;;;8.07;7.28;;;;;;;10.93;73.59;99300.66;5026089;28;20116;-74
2023/05/14 05:08:08;;;;;;;7.68;6.97;;;;;;;10.95;73.73;99304.91;5026303;28;20042;-74
2023/05/14 05:10:34;;;;;;;8.02;7.15;;;;;;;10.95;73.74;99304.91;5025627;28;20053;-74
2023/05/14 05:13:01;;;;;;;9.05;7.80;;;;;;;10.97;73.61;99310.13;5025120;28;20042;-74
2023/05/14 05:15:28;;;;;;;8.57;7.78;;;;;;;10.98;73.80;99312.69;5024850;28;20033;-74
2023/05/14 05:17:55;;;;;;;8.18;7.38;;;;;;;10.99;73.48;99305.59;5025911;28;20214;-74
2023/05/14 05:20:23;;;;;;;7.60;6.80;;;;;;;10.95;73.07;99312.03;5024568;28;20305;-74
2023/05/14 05:22:50;;;;;;;7.93;6.65;;;;;;;10.40;73.37;99238.25;5024757;28;20046;-74
2023/05/14 05:25:17;;;;;;;7.82;6.90;;;;;;;10.84;73.11;99310.84;5025576;28;20042;-74
2023/05/14 05:27:44;;;;;;;8.10;6.65;;;;;;;10.67;73.37;99292.34;5024693;28;20310;-74
2023/05/14 05:30:12;;;;;;;7.32;6.63;;;;;;;10.76;73.41;99306.88;5024604;28;20038;-74
2023/05/14 05:32:38;;;;;;;7.45;6.75;;;;;;;10.74;73.53;99298.16;5024569;28;20042;-74
2023/05/14 05:35:06;;;;;;;7.45;6.72;;;;;;;10.71;73.55;99304.50;5026014;28;20050;-74
2023/05/14 05:37:34;;;;;;;9.38;7.00;;;;;;;10.54;73.49;99273.63;5025321;28;20041;-74
2023/05/14 05:40:01;;;;;;;8.45;7.25;;;;;;;10.69;73.41;99290.47;5025307;28;20092;-74
2023/05/14 05:42:28;;;;;;;8.02;5.93;;;;;;;10.75;73.71;99287.47;5025600;28;20237;-74
2023/05/14 05:44:55;;;;;;;6.80;6.15;;;;;;;10.79;73.50;99280.22;5025402;28;20042;-74
2023/05/14 05:47:21;;;;;;;7.18;5.72;;;;;;;10.80;73.32;99282.78;5025900;28;20114;-74
2023/05/14 05:49:48;;;;;;;9.20;7.53;;;;;;;10.79;73.03;99275.78;5025334;28;20060;-74
2023/05/14 05:52:15;;;;;;;7.45;6.63;;;;;;;10.81;73.08;99270.38;5024369;28;20030;-74
2023/05/14 05:54:43;;;;;;;7.07;6.35;;;;;;;10.58;73.18;99240.72;5025888;28;20048;-73
2023/05/14 05:57:10;;;;;;;8.43;6.20;;;;;;;10.80;73.22;99282.78;5025226;28;20058;-74
2023/05/14 05:59:36;;;;;;;7.90;5.90;;;;;;;10.82;73.20;99280.91;5025054;28;20042;-74
2023/05/14 06:02:04;;;;;;;7.15;5.90;;;;;;;10.83;73.12;99281.75;5024076;28;20038;-74
2023/05/14 06:04:30;;;;;;;7.10;6.40;;;;;;;10.80;73.19;99287.25;5026694;28;20057;-74
2023/05/14 06:06:57;;;;;;;7.40;5.90;;;;;;;10.55;73.18;99246.19;5029234;28;20042;-74
2023/05/14 06:09:24;;;;;;;6.82;6.13;;;;;;;10.54;73.35;99249.78;5028079;28;20042;-74
2023/05/14 06:11:53;;;;;;;7.22;6.10;;;;;;;10.78;73.40;99286.47;5029051;28;20205;-74
2023/05/14 06:14:20;;;;;;;9.75;6.05;;;;;;;10.80;73.18;99276.63;5029099;28;20202;-75
2023/05/14 06:16:47;;;;;;;6.72;6.03;;;;;;;10.80;73.22;99284.59;5029286;28;20056;-74
2023/05/14 06:19:14;;;;;;;8.40;6.20;;;;;;;10.83;73.31;99279.13;5027866;28;20041;-74
2023/05/14 06:21:40;;;;;;;6.40;5.60;;;;;;;10.84;73.47;99281.69;5028596;28;20050;-74
2023/05/14 06:24:08;;;;;;;5.90;5.35;;;;;;;10.84;73.45;99271.06;5028636;28;20053;-74
2023/05/14 06:26:34;;;;;;;8.90;6.00;;;;;;;10.47;73.28;99208.69;5029142;28;20104;-74
2023/05/14 06:29:02;;;;;;;7.95;7.10;;;;;;;10.87;73.54;99280.66;5028516;28;20045;-74
2023/05/14 06:31:29;;;;;;;7.30;6.55;;;;;;;10.88;73.38;99280.56;5027576;28;20092;-74
2023/05/14 06:33:56;;;;;;;7.60;6.80;;;;;;;10.76;73.33;99251.22;5028775;28;20109;-74
2023/05/14 06:36:23;;;;;;;6.97;6.07;;;;;;;10.90;73.50;99272.50;5028612;28;20049;-74
2023/05/14 06:38:49;;;;;;;6.57;5.85;;;;;;;10.87;73.56;99284.16;5027478;28;20041;-74
2023/05/14 06:41:16;;;;;;;6.93;5.85;;;;;;;10.82;73.64;99282.69;5028850;28;20096;-74
2023/05/14 06:43:43;;;;;;;7.65;6.85;;;;;;;10.83;73.91;99290.56;5027418;28;20057;-74
2023/05/14 06:46:11;;;;;;;7.88;7.07;;;;;;;10.71;74.02;99271.81;5027604;28;20053;-74
2023/05/14 06:48:38;;;;;;;6.30;5.60;;;;;;;10.82;74.00;99288.88;5028153;28;20049;-74
2023/05/14 06:51:05;;;;;;;7.18;6.07;;;;;;;10.83;74.00;99284.41;5028602;28;20081;-74
2023/05/14 06:53:31;;;;;;;6.07;5.47;;;;;;;10.81;74.17;99286.31;5028621;28;20088;-73
2023/05/14 06:55:58;;;;;;;7.63;6.47;;;;;;;10.82;74.50;99290.66;5027172;28;20048;-74
2023/05/14 06:58:25;;;;;;;5.78;5.10;;;;;;;10.76;74.54;99280.38;5028006;28;20195;-74
2023/05/14 07:00:52;;;;;;;6.65;5.43;;;;;;;10.78;74.61;99291.78;5027859;28;20096;-74
2023/05/14 07:03:20;;;;;;;7.22;5.47;;;;;;;10.77;74.93;99280.31;5028071;28;20246;-74
2023/05/14 07:05:47;;;;;;;6.30;5.70;;;;;;;10.71;75.41;99282.44;5028071;28;20206;-74
2023/05/14 07:08:14;;;;;;;5.30;4.80;;;;;;;10.66;75.59;99274.75;5028061;28;20205;-74
2023/05/14 07:10:41;;;;;;;7.88;5.38;;;;;;;10.66;75.89;99280.03;5026804;28;20245;-74
2023/05/14 07:13:08;;;;;;;6.97;6.28;;;;;;;10.62;76.12;99280.31;5027602;28;20045;-74
2023/05/14 07:15:35;;;;;;;10.32;6.25;;;;;;;10.57;76.51;99277.91;5026774;28;20270;-74
2023/05/14 07:18:01;;;;;;;8.48;6.10;;;;;;;10.56;76.75;99277.06;5027466;28;20045;-74
2023/05/14 07:20:29;;;;;;;7.50;6.65;;;;;;;10.38;76.93;99241.00;5027415;28;20057;-74
2023/05/14 07:22:56;;;;;;;6.93;5.47;;;;;;;10.57;77.29;99272.59;5027482;28;20033;-74
2023/05/14 07:25:23;;;;;;;7.82;5.22;;;;;;;10.46;77.31;99245.88;5027910;28;20056;-74
2023/05/14 07:27:50;;;;;;;6.95;5.82;;;;;;;10.59;77.15;99260.13;5027437;28;20037;-74
2023/05/14 07:30:16;;;;;;;6.07;5.32;;;;;;;10.20;77.50;99207.59;5027803;28;20047;-74
2023/05/14 07:32:43;;;;;;;6.53;5.53;;;;;;;10.56;77.65;99271.75;5026283;28;20096;-74
2023/05/14 07:35:10;;;;;;;7.30;5.55;;;;;;;10.61;77.48;99263.53;5027450;28;20294;-74
2023/05/14 07:37:39;;;;;;;6.28;5.68;;;;;;;10.67;77.49;99263.19;5027446;28;20046;-74
2023/05/14 07:40:07;;;;;;;6.22;5.63;;;;;;;10.55;77.64;99230.28;5026305;28;20054;-74
2023/05/14 07:42:34;;;;;;;6.75;6.13;;;;;;;10.72;77.71;99266.44;5027079;28;20052;-74
2023/05/14 07:45:00;;;;;;;7.95;6.13;;;;;;;10.74;78.03;99258.41;5027633;28;20041;-74
2023/05/14 07:47:27;;;;;;;8.23;5.90;;;;;;;10.75;78.06;99255.66;5026035;28;20045;-74
2023/05/14 07:49:55;;;;;;;7.57;4.93;;;;;;;10.76;77.79;99254.72;5026094;28;20042;-74
2023/05/14 07:52:22;;;;;;;5.68;5.07;;;;;;;10.76;77.93;99251.22;5027361;28;20044;-74
2023/05/14 07:54:50;;;;;;;7.35;6.22;;;;;;;10.75;78.23;99242.41;5026019;28;20052;-74
2023/05/14 07:57:17;;;;;;;7.82;6.28;;;;;;;10.73;78.50;99246.94;5027103;28;20092;-74
2023/05/14 07:59:44;;;;;;;7.20;6.25;;;;;;;10.76;78.27;99244.13;5026801;28;20358;-74
2023/05/14 08:02:11;;;;;;;7.28;6.22;;;;;;;10.78;78.39;99236.09;5009648;28;20041;-74
2023/05/14 08:04:38;;;;;;;6.95;6.25;;;;;;;10.80;78.56;99235.06;5027298;28;20108;-74
2023/05/14 08:07:06;;;;;;;7.43;5.68;;;;;;;10.78;78.58;99234.31;5026980;28;20052;-74
2023/05/14 08:09:34;;;;;;;6.80;5.82;;;;;;;10.79;78.60;99227.22;5025857;28;20069;-74
2023/05/14 08:12:02;;;;;;;7.60;5.75;;;;;;;10.79;78.73;99219.25;5025591;28;20064;-74
2023/05/14 08:14:29;;;;;;;6.82;5.63;;;;;;;10.78;78.69;99217.56;5025843;28;20038;-74
2023/05/14 08:16:55;;;;;;;6.47;5.80;;;;;;;10.76;78.62;99217.59;5025715;28;20042;-74
2023/05/14 08:19:23;;;;;;;6.53;4.78;;;;;;;10.40;78.47;99157.00;5026356;28;20293;-74
2023/05/14 08:21:50;;;;;;;8.73;4.63;;;;;;;10.76;78.59;99227.34;5026124;28;20062;-74
2023/05/14 08:24:18;;;;;;;6.05;5.18;;;;;;;10.75;78.52;99220.34;5026656;28;20057;-75
2023/05/14 08:26:46;;;;;;;6.50;5.20;;;;;;;10.75;78.26;99217.69;5025309;28;20041;-73
2023/05/14 08:29:15;;;;;;;6.80;5.50;;;;;;;10.73;78.43;99206.31;5026291;28;20284;-76
2023/05/14 08:31:42;;;;;;;9.57;6.78;;;;;;;10.74;78.72;99206.25;5026393;28;20108;-76
2023/05/14 08:34:08;;;;;;;6.35;5.53;;;;;;;10.76;78.69;99206.16;5026422;28;20072;-76
2023/05/14 08:36:35;;;;;;;7.03;5.50;;;;;;;10.76;78.60;99208.81;5025350;28;20092;-75
2023/05/14 08:39:02;;;;;;;6.18;5.32;;;;;;;10.75;78.73;99207.94;5009138;28;20333;-75
2023/05/14 08:41:29;;;;;;;5.55;5.05;;;;;;;10.60;78.66;99180.53;5026645;28;20042;-74
2023/05/14 08:44:06;;;;;;;5.75;5.07;;;;;;;10.71;78.63;99206.41;5026266;28;20046;-75
2023/05/14 08:46:39;;;;;;;6.47;4.95;;;;;;;10.71;78.94;99206.41;5025525;28;20061;-74
2023/05/14 08:49:16;;;;;;;5.25;4.60;;;;;;;10.72;79.00;99196.66;5025070;28;20125;-75
2023/05/14 08:51:44;;;;;;;6.00;5.22;;;;;;;10.75;79.19;99199.13;5026345;28;20054;-74
2023/05/14 08:54:15;;;;;;;6.40;5.60;;;;;;;10.73;79.09;99199.22;5025913;28;20222;-74
2023/05/14 08:56:44;;;;;;;6.47;4.63;;;;;;;10.73;79.29;99199.22;5026358;28;20092;-75
2023/05/14 08:59:11;;;;;;;6.30;5.43;;;;;;;10.46;79.09;99145.19;5025795;28;20038;-75
2023/05/14 09:01:41;;;;;;;6.07;5.45;;;;;;;10.62;79.11;99169.84;5026376;28;20050;-75
2023/05/14 09:04:09;;;;;;;6.43;5.07;;;;;;;10.52;79.25;99156.28;5024979;28;20373;-74
2023/05/14 09:06:37;;;;;;;6.80;5.40;;;;;;;10.79;79.34;99198.06;5024910;28;20124;-75
2023/05/14 09:09:05;;;;;;;6.47;5.70;;;;;;;10.78;79.23;99199.00;5025421;28;20042;-75
2023/05/14 09:11:32;;;;;;;8.30;6.63;;;;;;;10.77;79.54;99197.25;5024808;28;20073;-74
2023/05/14 09:13:59;;;;;;;8.70;6.70;;;;;;;10.79;79.66;99195.41;5024672;28;20041;-74
2023/05/14 09:16:26;;;;;;;7.60;6.60;;;;;;;10.54;79.51;99154.38;5025650;28;20041;-75
2023/05/14 09:18:55;;;;;;;8.73;7.82;;;;;;;10.78;79.81;99191.03;5024696;28;20124;-75
2023/05/14 09:21:21;;;;;;;10.18;7.93;;;;;;;10.74;80.06;99187.69;5025324;28;20318;-75
2023/05/14 09:23:53;;;;;;;8.40;7.35;;;;;;;10.77;79.70;99194.59;5025297;28;20038;-75
2023/05/14 09:26:25;;;;;;;6.53;5.88;;;;;;;10.77;79.62;99198.13;5025489;28;20042;-75
2023/05/14 09:28:54;;;;;;;5.78;5.18;;;;;;;10.78;79.57;99189.25;5024670;28;20058;-75
2023/05/14 09:31:21;;;;;;;6.97;4.88;;;;;;;10.23;79.75;99109.41;5025501;28;20104;-75
2023/05/14 09:33:51;;;;;;;6.18;5.55;;;;;;;10.75;80.08;99177.94;5024846;28;20041;-75
2023/05/14 09:36:20;;;;;;;6.07;5.47;;;;;;;10.77;79.99;99170.75;5025979;28;20104;-74
2023/05/14 09:38:46;;;;;;;7.85;6.38;;;;;;;10.66;80.17;99168.72;5025649;28;20253;-75
2023/05/14 09:41:13;;;;;;;8.50;7.65;;;;;;;10.79;80.20;99169.75;5028537;28;20062;-75
2023/05/14 09:43:40;;;;;;;10.00;9.00;;;;;;;8.59;79.97;98797.78;5029423;28;20038;-75
2023/05/14 09:46:07;;;;;;;7.70;6.70;;;;;;;10.67;79.95;99146.56;5029890;28;20060;-75
2023/05/14 09:48:33;;;;;;;6.72;5.90;;;;;;;10.84;79.98;99172.13;5029283;28;20068;-75
2023/05/14 09:51:00;;;;;;;6.35;5.70;;;;;;;10.83;79.88;99165.13;5029074;28;20046;-75
2023/05/14 09:53:32;;;;;;;7.45;5.50;;;;;;;10.54;80.23;99111.13;5029340;28;20062;-75
2023/05/14 09:55:59;;;;;;;7.55;5.65;;;;;;;10.86;80.04;99162.28;5029131;28;20096;-74
2023/05/14 09:58:26;;;;;;;6.82;5.38;;;;;;;10.87;79.71;99159.53;5029078;28;20072;-74
2023/05/14 10:00:54;;;;;;;6.13;4.93;;;;;;;10.89;80.16;99160.31;5029308;28;20261;-75
2023/05/14 10:03:24;;;;;;;5.72;5.13;;;;;;;10.89;79.76;99154.16;5029534;28;20088;-75
2023/05/14 10:05:52;;;;;;;5.97;5.35;;;;;;;10.88;80.24;99150.63;5028056;28;20048;-75
2023/05/14 10:08:24;;;;;;;6.43;5.53;;;;;;;10.86;80.19;99149.88;5028966;28;20044;-75
2023/05/14 10:10:54;;;;;;;7.45;5.82;;;;;;;10.87;80.55;99142.78;5029440;28;20092;-75
2023/05/14 10:13:23;;;;;;;5.63;4.85;;;;;;;10.88;80.35;99155.09;5027903;28;20068;-75
2023/05/14 10:15:57;;;;;;;9.65;5.65;;;;;;;10.39;80.29;99086.41;5028519;28;20042;-75
2023/05/14 10:18:26;;;;;;;6.07;5.37;;;;;;;9.95;80.58;98986.56;5027863;28;20041;-75
2023/05/14 10:21:01;;;;;;;16.73;5.55;;;;;;;10.88;80.78;99136.53;5028663;28;20061;-75
2023/05/14 10:23:28;;;;;;;9.00;6.53;;;;;;;10.89;80.88;99132.94;5027770;28;20057;-74
2023/05/14 10:25:57;;;;;;;11.15;7.25;;;;;;;10.22;81.00;99018.53;5028971;28;20042;-75
2023/05/14 10:28:24;;;;;;;9.07;8.18;;;;;;;10.89;80.99;99132.94;5028447;28;20038;-74
2023/05/14 10:30:50;;;;;;;8.13;6.72;;;;;;;10.90;80.84;99127.53;5028930;28;20100;-74
2023/05/14 10:33:18;;;;;;;7.25;6.22;;;;;;;10.67;80.92;99084.78;5028656;28;20197;-75
2023/05/14 10:35:55;;;;;;;6.88;6.15;;;;;;;10.91;81.07;99115.13;5028928;28;20046;-75
2023/05/14 10:38:25;;;;;;;6.90;5.75;;;;;;;10.57;80.78;99065.91;5028316;28;20054;-75
2023/05/14 10:41:10;;;;;;;6.20;5.40;;;;;;;10.92;81.00;99111.53;5028591;28;20037;-77
2023/05/14 10:43:41;;;;;;;7.40;5.60;;;;;;;10.93;81.29;99113.25;5028193;28;20056;-77
2023/05/14 10:46:09;;;;;;;7.03;6.25;;;;;;;10.60;81.23;99055.13;5027142;28;20056;-77
2023/05/14 10:48:37;;;;;;;7.60;6.80;;;;;;;10.99;81.25;99109.38;5028184;28;20213;-77
2023/05/14 10:51:07;;;;;;;8.68;6.57;;;;;;;10.97;81.01;99117.41;5028359;28;20101;-75
2023/05/14 10:53:35;;;;;;;6.22;5.40;;;;;;;11.00;81.16;99116.38;5027326;28;20084;-75
2023/05/14 10:56:07;;;;;;;8.27;6.45;;;;;;;11.01;81.11;99110.13;5028061;28;20096;-75
2023/05/14 10:58:37;;;;;;;6.88;6.25;;;;;;;11.01;81.26;99110.13;5028006;28;20268;-75
2023/05/14 11:01:06;;;;;;;7.38;6.38;;;;;;;11.02;81.52;99109.19;5028414;28;20080;-76
2023/05/14 11:03:39;;;;;;;7.68;6.70;;;;;;;10.88;81.66;99079.06;5026753;28;20064;-75
2023/05/14 11:06:07;;;;;;;9.43;8.15;;;;;;;11.03;81.54;99095.84;5026557;28;20049;-76
2023/05/14 11:08:34;;;;;;;7.68;6.88;;;;;;;11.05;81.42;99098.38;5027734;28;20056;-75
2023/05/14 11:11:01;;;;;;;11.30;9.30;;;;;;;11.04;81.56;99091.38;5027992;28;20050;-76
2023/05/14 11:13:29;;;;;;;10.07;7.82;;;;;;;11.07;81.50;99092.03;5028172;28;20046;-76
2023/05/14 11:15:56;;;;;;;9.13;7.63;;;;;;;11.09;81.74;99089.31;5027945;28;20056;-76
2023/05/14 11:18:29;;;;;;;7.13;6.13;;;;;;;11.09;82.01;99081.34;5026821;28;20048;-77
2023/05/14 11:20:58;;;;;;;9.38;7.95;;;;;;;11.07;82.03;99076.13;5027657;28;20057;-75
2023/05/14 11:23:25;;;;;;;8.82;7.97;;;;;;;10.86;81.97;99038.53;5027798;28;20037;-76
2023/05/14 11:25:52;;;;;;;8.02;7.22;;;;;;;11.10;81.96;99067.13;5027659;28;20187;-76
2023/05/14 11:28:20;;;;;;;10.45;7.10;;;;;;;10.98;82.18;99047.53;5027392;28;20042;-76
2023/05/14 11:30:47;;;;;;;8.07;6.70;;;;;;;11.14;81.90;99072.16;5027862;28;20054;-76
2023/05/14 11:33:15;;;;;;;10.05;8.32;;;;;;;10.59;82.17;98973.94;5027054;28;20107;-76